Time;durP1;ratioP1;P1;durP2;ratioP2;P2;SDS_P1;SDS_P2;PMS_P1;PMS_P2;Temp;Humidity;BMP_temperature;BMP_pressure;BME280_temperature;BME280_humidity;BME280_pressure;Samples;Min_cycle;Max_cycle;Signal;HPM_P1;HPM_P2
2022/04/25 00:01:37;;;;;;;1.13;1.13;;;;;;;10.17;100.00;90320.06;5071265;28;20056;-67
2022/04/25 00:04:03;;;;;;;1.05;1.05;;;;;;;10.17;100.00;90314.75;5071093;28;20020;-64
2022/04/25 00:06:28;;;;;;;1.33;1.25;;;;;;;10.16;100.00;90319.28;5070855;28;20078;-64
2022/04/25 00:08:54;;;;;;;0.90;0.90;;;;;;;10.08;100.00;90311.34;5070796;28;20052;-64
2022/04/25 00:11:19;;;;;;;1.35;1.25;;;;;;;10.03;100.00;90311.53;5070843;28;20119;-65
2022/04/25 00:13:45;;;;;;;1.00;1.00;;;;;;;10.07;100.00;90315.88;5071032;28;20039;-65
2022/04/25 00:16:10;;;;;;;1.50;1.30;;;;;;;10.03;100.00;90308.88;5070979;28;20048;-64
2022/04/25 00:18:36;;;;;;;1.83;1.73;;;;;;;10.03;100.00;90308.88;5070937;28;20119;-65
2022/04/25 00:21:02;;;;;;;1.25;1.20;;;;;;;10.15;100.00;90309.75;5070967;28;20047;-64
2022/04/25 00:23:28;;;;;;;1.40;1.30;;;;;;;10.04;100.00;90294.50;5078033;28;20037;-67
2022/04/25 00:25:53;;;;;;;1.90;1.80;;;;;;;10.13;100.00;90311.19;5073123;28;20170;-64
2022/04/25 00:28:19;;;;;;;1.08;1.08;;;;;;;10.03;100.00;90303.56;5070611;28;20040;-65
2022/04/25 00:30:47;;;;;;;1.20;1.20;;;;;;;9.95;100.00;90312.38;5070752;28;20413;-66
2022/04/25 00:33:13;;;;;;;1.25;1.20;;;;;;;9.98;100.00;90306.41;5070659;28;20062;-64
2022/04/25 00:35:38;;;;;;;1.27;1.23;;;;;;;10.10;100.00;90309.94;5070813;28;20522;-65
2022/04/25 00:38:04;;;;;;;1.42;1.33;;;;;;;10.10;100.00;90314.50;5070656;28;20037;-65
2022/04/25 00:40:29;;;;;;;1.17;1.17;;;;;;;9.86;100.00;90305.19;5055515;28;20036;-65
2022/04/25 00:42:55;;;;;;;1.58;1.48;;;;;;;9.87;100.00;90317.38;5050056;28;20437;-65
2022/04/25 00:45:20;;;;;;;1.67;1.58;;;;;;;9.91;100.00;90310.31;5049906;28;20025;-64
2022/04/25 00:47:46;;;;;;;1.60;1.50;;;;;;;9.90;100.00;90306.13;5049919;28;20415;-65
2022/04/25 00:50:13;;;;;;;0.90;0.90;;;;;;;10.04;100.00;90313.09;5047502;28;20056;-66
2022/04/25 00:52:40;;;;;;;0.90;0.90;;;;;;;10.14;100.00;90315.41;5049895;28;20044;-64
2022/04/25 00:55:09;;;;;;;1.00;1.00;;;;;;;10.09;100.00;90307.59;5049907;28;20037;-65
2022/04/25 00:57:35;;;;;;;0.82;0.82;;;;;;;9.95;100.00;90299.88;5047447;28;20067;-64
2022/04/25 01:00:05;;;;;;;0.93;0.93;;;;;;;9.75;100.00;90303.97;5049924;28;20029;-64
2022/04/25 01:02:30;;;;;;;1.45;1.38;;;;;;;9.53;100.00;90307.66;5049823;28;20037;-64
2022/04/25 01:04:56;;;;;;;1.55;1.48;;;;;;;9.34;100.00;90304.59;5049777;28;20025;-65
2022/04/25 01:07:22;;;;;;;0.90;0.90;;;;;;;9.38;100.00;90302.06;5049646;28;20128;-65
2022/04/25 01:09:47;;;;;;;1.05;1.05;;;;;;;9.35;100.00;90305.38;5049309;28;20041;-65
2022/04/25 01:12:13;;;;;;;1.02;1.00;;;;;;;9.33;100.00;90310.22;5048806;28;20029;-65
2022/04/25 01:14:38;;;;;;;1.73;1.50;;;;;;;9.53;100.00;90314.84;5048934;28;20087;-65
2022/04/25 01:17:05;;;;;;;0.95;0.95;;;;;;;9.68;100.00;90297.63;5048590;28;20403;-64
2022/04/25 01:19:30;;;;;;;2.45;2.17;;;;;;;9.71;100.00;90312.91;5048878;28;20128;-65
2022/04/25 01:21:59;;;;;;;3.40;1.40;;;;;;;9.73;100.00;90310.72;5048917;28;20181;-65
2022/04/25 01:27:16;;;;;;;1.70;1.60;;;;;;;9.81;100.00;90308.03;5046063;28;20781;-65
2022/04/25 01:29:49;;;;;;;1.92;1.83;;;;;;;9.72;100.00;90288.69;5048791;28;20116;-66
2022/04/25 01:32:16;;;;;;;1.40;1.30;;;;;;;9.79;100.00;90294.31;5046763;28;20465;-65
2022/04/25 01:34:41;;;;;;;2.95;2.67;;;;;;;9.87;100.00;90304.09;5048702;28;20087;-66
2022/04/25 01:37:09;;;;;;;1.05;1.05;;;;;;;9.77;100.00;90307.09;5033570;28;20041;-65
2022/04/25 01:39:55;;;;;;;3.63;2.15;;;;;;;9.59;100.00;90290.44;5052447;28;20033;-65
2022/04/25 01:42:22;;;;;;;1.30;1.30;;;;;;;9.72;100.00;90304.63;5051112;28;20076;-66
2022/04/25 01:44:48;;;;;;;1.52;1.42;;;;;;;9.74;100.00;90294.47;5052234;28;20518;-63
2022/04/25 01:47:13;;;;;;;1.17;1.17;;;;;;;9.72;100.00;90294.00;5033300;28;20037;-65
2022/04/25 01:49:39;;;;;;;1.08;1.08;;;;;;;9.65;100.00;90288.41;5052242;28;20041;-64
2022/04/25 01:52:23;;;;;;;2.13;2.03;;;;;;;9.65;100.00;90288.41;5051958;28;20495;-66
2022/04/25 01:54:48;;;;;;;1.35;1.33;;;;;;;9.53;100.00;90289.06;5051998;28;20079;-65
2022/04/25 01:57:14;;;;;;;1.42;1.33;;;;;;;9.23;100.00;90274.94;5051759;28;20601;-64
2022/04/25 01:59:40;;;;;;;1.30;1.20;;;;;;;9.28;100.00;90280.06;5052080;28;20052;-65
2022/04/25 02:02:06;;;;;;;1.20;1.20;;;;;;;9.22;100.00;90278.69;5051904;28;20036;-65
2022/04/25 02:04:31;;;;;;;1.13;1.13;;;;;;;9.19;100.00;90271.38;5052166;28;20039;-65
2022/04/25 02:06:57;;;;;;;1.42;1.33;;;;;;;9.10;100.00;90270.59;5051592;28;20041;-64
2022/04/25 02:09:23;;;;;;;1.30;1.23;;;;;;;9.07;100.00;90268.56;5051467;28;20060;-67
2022/04/25 02:11:49;;;;;;;1.98;1.83;;;;;;;9.15;100.00;90259.03;5051863;28;20025;-65
2022/04/25 02:14:15;;;;;;;0.98;0.98;;;;;;;9.18;100.00;90259.19;5051708;28;20029;-67
2022/04/25 02:16:40;;;;;;;1.10;1.00;;;;;;;9.14;100.00;90254.81;5051590;28;20044;-65
2022/04/25 02:19:06;;;;;;;1.45;1.35;;;;;;;9.10;100.00;90236.09;5051430;28;20025;-64
2022/04/25 02:21:32;;;;;;;1.95;1.35;;;;;;;9.05;100.00;90235.50;5051628;28;20029;-65
2022/04/25 02:23:58;;;;;;;1.40;1.30;;;;;;;8.97;100.00;90227.22;5051521;28;20040;-65
2022/04/25 02:26:23;;;;;;;0.90;0.90;;;;;;;8.99;100.00;90227.72;5051293;28;20491;-65
2022/04/25 02:28:49;;;;;;;1.10;1.10;;;;;;;9.01;100.00;90222.09;5051384;28;20021;-64
2022/04/25 02:31:15;;;;;;;5.95;2.47;;;;;;;8.99;100.00;90235.69;5051297;28;20029;-65
2022/04/25 02:33:41;;;;;;;2.30;2.20;;;;;;;8.90;100.00;90223.50;5051320;28;20040;-65
2022/04/25 02:36:08;;;;;;;1.02;1.02;;;;;;;8.92;100.00;90239.88;5051125;28;20074;-65
2022/04/25 02:38:35;;;;;;;1.25;1.25;;;;;;;8.90;100.00;90232.25;5051231;28;20037;-67
2022/04/25 02:41:06;;;;;;;1.35;1.27;;;;;;;8.86;100.00;90223.38;5051220;28;20422;-65
2022/04/25 02:43:39;;;;;;;1.02;1.02;;;;;;;8.78;100.00;90234.75;5048647;28;20037;-65
2022/04/25 02:46:08;;;;;;;0.95;0.95;;;;;;;8.75;100.00;90234.59;5051120;28;20503;-64
2022/04/25 02:48:35;;;;;;;1.40;1.40;;;;;;;8.61;100.00;90227.59;5047973;28;20045;-64
2022/04/25 02:51:02;;;;;;;2.10;2.00;;;;;;;8.49;100.00;90232.75;5058613;28;20068;-67
2022/04/25 02:53:28;;;;;;;1.73;1.63;;;;;;;8.35;100.00;90224.16;5062281;28;20029;-65
2022/04/25 02:55:54;;;;;;;2.03;1.88;;;;;;;8.36;100.00;90237.13;5050896;28;20036;-64
2022/04/25 02:58:20;;;;;;;1.85;1.75;;;;;;;8.39;100.00;90241.03;5050984;28;20041;-64
2022/04/25 03:00:47;;;;;;;1.10;1.10;;;;;;;8.42;100.00;90240.41;5051104;28;20079;-65
2022/04/25 03:03:14;;;;;;;1.52;1.42;;;;;;;8.37;100.00;90253.81;5051571;28;20409;-65
2022/04/25 03:05:45;;;;;;;7.93;6.07;;;;;;;8.30;100.00;90250.78;5051823;28;20048;-64
2022/04/25 03:08:12;;;;;;;2.70;2.50;;;;;;;8.26;100.00;90244.56;5051971;28;20095;-65
2022/04/25 03:10:38;;;;;;;2.90;1.98;;;;;;;8.14;100.00;90231.16;5070097;28;20135;-65
2022/04/25 03:13:07;;;;;;;3.95;3.05;;;;;;;8.05;100.00;90241.75;5053918;28;20536;-65
2022/04/25 03:15:34;;;;;;;5.07;4.03;;;;;;;8.07;100.00;90245.63;5072287;28;20040;-65
2022/04/25 03:18:01;;;;;;;5.55;1.67;;;;;;;8.05;100.00;90247.03;5071919;28;20559;-65
2022/04/25 03:20:27;;;;;;;4.18;1.42;;;;;;;8.04;100.00;90238.28;5071942;28;20059;-65
2022/04/25 03:22:54;;;;;;;1.45;1.35;;;;;;;8.02;100.00;90237.81;5065694;28;20040;-65
2022/04/25 03:25:19;;;;;;;1.27;1.27;;;;;;;8.08;100.00;90236.59;5050997;28;20056;-65
2022/04/25 03:27:44;;;;;;;1.00;1.00;;;;;;;8.04;100.00;90218.97;5052778;28;20729;-65
2022/04/25 03:30:10;;;;;;;1.13;1.13;;;;;;;7.86;100.00;90218.16;5050316;28;20110;-65
2022/04/25 03:32:36;;;;;;;1.15;1.10;;;;;;;7.77;100.00;90228.75;5051631;28;20449;-64
2022/04/25 03:35:03;;;;;;;1.38;1.38;;;;;;;7.75;100.00;90219.56;5051544;28;20064;-65
2022/04/25 03:37:30;;;;;;;1.60;1.50;;;;;;;7.81;100.00;90220.97;5051769;28;20025;-65
2022/04/25 03:39:57;;;;;;;0.90;0.90;;;;;;;7.73;100.00;90216.41;5051560;28;20029;-65
2022/04/25 03:42:24;;;;;;;1.52;1.42;;;;;;;7.72;100.00;90205.06;5051542;28;20107;-65
2022/04/25 03:44:49;;;;;;;1.02;1.02;;;;;;;7.80;100.00;90222.84;5051460;28;20402;-65
2022/04/25 03:47:14;;;;;;;1.58;1.48;;;;;;;7.85;100.00;90219.25;5051186;28;20032;-63
2022/04/25 03:49:41;;;;;;;1.95;1.85;;;;;;;7.89;100.00;90214.94;5051448;28;20108;-65
2022/04/25 03:52:07;;;;;;;1.17;1.08;;;;;;;7.95;100.00;90223.50;5051703;28;20025;-65
2022/04/25 03:57:16;;;;;;;1.17;1.17;;;;;;;8.17;100.00;90233.16;5051428;28;20518;-65
2022/04/25 03:59:42;;;;;;;1.52;1.38;;;;;;;8.23;100.00;90235.38;5051297;28;20036;-65
2022/04/25 04:02:08;;;;;;;1.48;1.30;;;;;;;8.45;100.00;90253.00;5051531;28;20103;-65
2022/04/25 04:04:34;;;;;;;1.92;1.83;;;;;;;8.65;100.00;90254.25;5033405;28;20037;-64
2022/04/25 04:06:59;;;;;;;1.20;1.20;;;;;;;8.87;100.00;90266.59;5050967;28;20063;-64
2022/04/25 04:12:10;;;;;;;1.70;1.60;;;;;;;9.08;100.00;90267.47;5051175;28;20510;-65
2022/04/25 04:14:35;;;;;;;1.63;1.52;;;;;;;9.04;100.00;90257.81;5051290;28;20033;-65
2022/04/25 04:17:01;;;;;;;2.05;1.58;;;;;;;9.03;100.00;90267.66;5050758;28;20017;-65
2022/04/25 04:19:26;;;;;;;1.65;1.55;;;;;;;9.04;100.00;90263.13;5051042;28;20036;-65
2022/04/25 04:21:52;;;;;;;0.95;0.95;;;;;;;8.93;100.00;90263.44;5050949;28;20052;-64
2022/04/25 04:24:18;;;;;;;2.13;1.95;;;;;;;9.03;100.00;90267.66;5050935;28;20172;-65
2022/04/25 04:26:43;;;;;;;2.10;2.00;;;;;;;8.91;100.00;90273.59;5050835;28;20108;-65
2022/04/25 04:29:09;;;;;;;1.63;1.50;;;;;;;9.19;100.00;90271.38;5050707;28;20048;-65
2022/04/25 04:31:34;;;;;;;1.90;1.80;;;;;;;9.27;100.00;90272.44;5050940;28;20044;-65
2022/04/25 04:33:59;;;;;;;2.45;1.58;;;;;;;9.49;100.00;90260.81;5050873;28;20534;-65
2022/04/25 04:36:26;;;;;;;2.22;2.03;;;;;;;9.86;100.00;90272.53;5050790;28;20597;-64
2022/04/25 04:38:52;;;;;;;1.60;1.50;;;;;;;9.99;100.00;90266.22;5051094;28;20041;-65
2022/04/25 04:41:17;;;;;;;1.83;1.73;;;;;;;10.17;100.00;90264.25;5050763;28;20094;-64
2022/04/25 04:43:43;;;;;;;1.15;1.15;;;;;;;10.35;100.00;90265.72;5050796;28;20033;-65
2022/04/25 04:46:09;;;;;;;1.17;1.13;;;;;;;10.72;100.00;90256.06;5050646;28;20047;-65
2022/04/25 04:48:34;;;;;;;1.95;1.30;;;;;;;11.07;100.00;90256.56;5050567;28;20494;-64
2022/04/25 04:51:00;;;;;;;1.67;1.58;;;;;;;11.31;100.00;90245.22;5050606;28;20025;-65
2022/04/25 04:53:26;;;;;;;1.85;1.75;;;;;;;11.91;100.00;90249.13;5050559;28;20036;-64
2022/04/25 04:55:52;;;;;;;2.17;2.03;;;;;;;12.68;100.00;90245.72;5050550;28;20104;-64
2022/04/25 04:58:20;;;;;;;2.00;1.90;;;;;;;13.37;100.00;90240.03;5050741;28;20079;-64
2022/04/25 05:00:46;;;;;;;18.05;10.73;;;;;;;13.38;100.00;90251.50;5050604;28;20032;-64
2022/04/25 05:03:15;;;;;;;33.35;21.23;;;;;;;14.12;97.81;90252.59;5050503;28;20025;-65
2022/04/25 05:05:45;;;;;;;1.65;1.55;;;;;;;14.50;90.86;90253.88;5050365;28;20064;-65
2022/04/25 05:08:11;;;;;;;2.10;1.95;;;;;;;14.57;92.09;90251.38;5050596;28;20036;-64
2022/04/25 05:10:36;;;;;;;3.67;2.67;;;;;;;14.76;93.58;90272.06;5050954;28;20056;-64
2022/04/25 05:13:03;;;;;;;1.85;1.75;;;;;;;15.45;87.88;90262.38;5054558;28;20021;-64
2022/04/25 05:15:30;;;;;;;2.28;2.08;;;;;;;15.31;84.40;90276.28;5054344;28;20033;-64
2022/04/25 05:17:55;;;;;;;2.58;1.70;;;;;;;14.61;89.25;90271.75;5054289;28;20025;-63
2022/04/25 05:20:23;;;;;;;2.80;1.80;;;;;;;15.31;85.19;90278.97;5057092;28;20387;-65
2022/04/25 05:22:49;;;;;;;1.98;1.77;;;;;;;15.45;84.23;90273.88;5063708;28;20052;-65
2022/04/25 05:25:17;;;;;;;1.83;1.73;;;;;;;16.32;82.83;90299.22;5059516;28;20037;-64
2022/04/25 05:27:48;;;;;;;1.73;1.63;;;;;;;16.87;82.84;90280.91;5054327;28;20020;-64
2022/04/25 05:30:15;;;;;;;3.58;3.28;;;;;;;16.82;84.54;90277.78;5054185;28;20032;-64
2022/04/25 05:32:52;;;;;;;4.15;2.42;;;;;;;17.22;81.89;90280.66;5054090;28;20044;-64
2022/04/25 05:35:24;;;;;;;2.45;2.22;;;;;;;17.49;78.71;90297.50;5053925;28;20033;-64
2022/04/25 05:37:49;;;;;;;2.42;2.22;;;;;;;18.90;70.65;90304.72;5054022;28;20033;-64
2022/04/25 05:40:16;;;;;;;8.43;6.47;;;;;;;19.53;65.27;90302.78;5036036;28;20033;-64
2022/04/25 05:42:43;;;;;;;3.50;2.83;;;;;;;19.38;65.37;90304.63;5053858;28;20082;-65
2022/04/25 05:45:10;;;;;;;3.05;2.85;;;;;;;18.43;69.45;90318.91;5053742;28;20114;-65
2022/04/25 05:47:36;;;;;;;7.72;4.88;;;;;;;19.33;68.12;90303.06;5053615;28;20167;-65
2022/04/25 05:52:48;;;;;;;2.33;2.00;;;;;;;22.48;55.63;90302.03;5053395;28;20055;-65
2022/04/25 05:55:13;;;;;;;2.67;2.25;;;;;;;21.27;54.44;90297.00;5053635;28;20490;-65
2022/04/25 05:57:43;;;;;;;3.97;3.38;;;;;;;21.50;56.26;90300.84;5037708;28;20047;-68
2022/04/25 06:00:11;;;;;;;2.60;2.22;;;;;;;24.47;48.92;90300.22;5021329;28;20096;-67
2022/04/25 06:02:38;;;;;;;1.67;1.40;;;;;;;25.05;46.13;90306.41;5033404;28;20709;-68
2022/04/25 06:05:04;;;;;;;3.20;2.90;;;;;;;26.96;42.70;90305.97;5052820;28;20099;-65
2022/04/25 06:07:31;;;;;;;5.30;2.78;;;;;;;26.83;41.70;90297.69;5052742;28;20402;-65
2022/04/25 06:09:57;;;;;;;5.43;2.42;;;;;;;25.97;43.20;90301.38;5052865;28;20110;-66
2022/04/25 06:12:22;;;;;;;2.47;1.73;;;;;;;26.88;41.93;90293.69;5052885;28;20036;-66
2022/04/25 06:14:48;;;;;;;2.30;1.80;;;;;;;27.93;39.26;90295.09;5052689;28;20026;-67
2022/04/25 06:17:15;;;;;;;4.55;2.53;;;;;;;27.58;39.40;90293.97;5052618;28;20033;-65
2022/04/25 06:19:41;;;;;;;2.42;2.22;;;;;;;29.25;37.33;90279.63;5052374;28;20505;-66
2022/04/25 06:22:09;;;;;;;3.63;2.67;;;;;;;27.39;39.19;90286.66;5052100;28;20033;-64
2022/04/25 06:24:35;;;;;;;6.00;2.95;;;;;;;29.20;38.30;90295.41;5052951;28;20039;-64
2022/04/25 06:27:02;;;;;;;7.30;4.10;;;;;;;28.33;38.25;90283.88;5052424;28;20025;-66
2022/04/25 06:29:29;;;;;;;3.25;2.75;;;;;;;26.37;40.41;90291.28;5052712;28;20021;-63
2022/04/25 06:31:55;;;;;;;3.83;2.90;;;;;;;28.02;40.12;90297.19;5052242;28;20041;-67
2022/04/25 06:34:21;;;;;;;2.08;1.88;;;;;;;29.71;37.03;90298.13;5026524;28;20057;-65
2022/04/25 06:36:50;;;;;;;3.63;2.03;;;;;;;29.09;37.30;90291.47;5049760;28;20494;-66
2022/04/25 06:39:16;;;;;;;1.90;1.70;;;;;;;30.18;36.38;90280.88;5052925;28;20031;-66
2022/04/25 06:41:41;;;;;;;2.80;2.15;;;;;;;31.39;34.94;90283.88;5052128;28;20478;-67
2022/04/25 06:44:07;;;;;;;4.00;3.03;;;;;;;29.40;36.75;90281.47;5052319;28;20115;-65
2022/04/25 06:46:32;;;;;;;4.35;2.75;;;;;;;31.28;35.36;90279.59;5051618;28;20035;-65
2022/04/25 06:51:42;;;;;;;3.03;2.17;;;;;;;32.05;33.15;90279.66;5051598;28;20207;-66
2022/04/25 06:54:08;;;;;;;2.65;2.20;;;;;;;32.33;32.59;90282.41;5051338;28;20104;-66
2022/04/25 06:56:33;;;;;;;1.83;1.63;;;;;;;30.67;34.33;90281.09;5035377;28;20037;-66
2022/04/25 06:58:58;;;;;;;3.13;2.83;;;;;;;30.49;34.70;90267.22;5041471;28;20426;-67
2022/04/25 07:01:24;;;;;;;2.97;2.15;;;;;;;31.60;32.70;90266.56;5031667;28;20029;-67
2022/04/25 07:03:50;;;;;;;1.23;1.10;;;;;;;31.24;32.03;90267.97;5040206;28;20033;-67
2022/04/25 07:06:15;;;;;;;3.13;2.03;;;;;;;29.77;34.29;90270.88;5051505;28;20028;-66
2022/04/25 07:08:40;;;;;;;2.08;1.88;;;;;;;28.77;33.73;90267.75;5050824;28;20037;-65
2022/04/25 07:11:06;;;;;;;5.53;1.80;;;;;;;29.03;32.85;90263.84;5034427;28;20030;-66
2022/04/25 07:13:31;;;;;;;0.85;0.85;;;;;;;28.62;32.78;90259.97;5031881;28;20655;-64
2022/04/25 07:15:58;;;;;;;1.77;1.30;;;;;;;29.97;32.44;90271.38;5031516;28;20061;-65
2022/04/25 07:18:24;;;;;;;3.80;2.30;;;;;;;28.84;33.68;90273.78;5013974;28;20458;-64
2022/04/25 07:20:49;;;;;;;15.25;9.00;;;;;;;29.16;34.22;90264.59;5031304;28;20048;-66
2022/04/25 07:28:49;;;;;;;1.15;1.00;;;;;;;27.17;34.79;90263.81;5051661;28;20517;-65
2022/04/25 07:31:15;;;;;;;4.78;1.85;;;;;;;27.98;32.70;90259.00;5051061;28;20532;-65
2022/04/25 07:33:43;;;;;;;1.95;1.83;;;;;;;27.66;32.22;90254.41;5050669;28;20104;-66
2022/04/25 07:36:09;;;;;;;1.60;1.50;;;;;;;25.49;33.87;90264.44;5050809;28;20387;-65
2022/04/25 07:38:36;;;;;;;1.20;1.10;;;;;;;26.74;32.50;90262.78;5050658;28;20021;-65
2022/04/25 07:41:02;;;;;;;1.00;1.00;;;;;;;25.35;33.77;90253.81;5051099;28;20494;-66
2022/04/25 07:43:29;;;;;;;0.98;0.95;;;;;;;25.30;34.76;90263.22;5051046;28;20056;-67
2022/04/25 07:45:55;;;;;;;6.15;1.60;;;;;;;26.11;32.99;90254.75;5050033;28;20532;-66
2022/04/25 07:48:21;;;;;;;1.85;1.75;;;;;;;25.47;33.78;90255.94;5033186;28;20415;-66
2022/04/25 07:50:47;;;;;;;2.15;1.33;;;;;;;25.15;33.71;90259.19;5050888;28;20036;-67
2022/04/25 07:53:12;;;;;;;0.90;0.90;;;;;;;25.76;33.26;90261.66;5050457;28;20025;-66
2022/04/25 07:55:38;;;;;;;1.98;1.10;;;;;;;27.33;32.21;90261.06;5050975;28;20029;-66
2022/04/25 07:58:04;;;;;;;1.13;1.00;;;;;;;26.25;32.69;90256.41;5050905;28;20414;-66
2022/04/25 08:00:29;;;;;;;0.98;0.98;;;;;;;26.84;33.09;90250.88;5050351;28;20033;-66
2022/04/25 08:02:55;;;;;;;1.25;1.17;;;;;;;27.37;32.26;90237.16;5050870;28;20021;-66
2022/04/25 08:05:20;;;;;;;0.70;0.70;;;;;;;26.99;31.60;90248.59;5050449;28;20037;-68
2022/04/25 08:07:46;;;;;;;1.33;1.15;;;;;;;27.45;32.10;90241.22;5050401;28;20060;-65
2022/04/25 08:10:13;;;;;;;2.65;2.42;;;;;;;26.68;32.93;90231.75;5050217;28;20041;-67
2022/04/25 08:18:06;;;;;;;1.42;1.33;;;;;;;26.35;33.59;90216.47;5050799;28;20039;-65
2022/04/25 08:20:36;;;;;;;1.45;1.35;;;;;;;26.73;33.18;90230.47;5050084;28;20061;-66
2022/04/25 08:23:09;;;;;;;3.35;1.40;;;;;;;27.50;32.24;90215.38;5049589;28;20025;-67
2022/04/25 08:25:36;;;;;;;1.13;1.13;;;;;;;26.62;33.75;90222.53;5050659;28;20482;-64
2022/04/25 08:28:01;;;;;;;1.20;1.02;;;;;;;27.03;32.30;90226.69;5053539;28;20036;-66
2022/04/25 08:30:28;;;;;;;2.00;1.85;;;;;;;26.90;32.55;90225.78;5063684;28;20074;-68
2022/04/25 08:32:55;;;;;;;1.40;1.27;;;;;;;26.15;33.54;90225.44;5077278;28;20118;-65
2022/04/25 08:35:21;;;;;;;3.33;1.27;;;;;;;25.83;32.58;90217.91;5070371;28;20155;-65
2022/04/25 08:37:47;;;;;;;3.28;1.65;;;;;;;26.56;33.14;90211.34;5070546;28;20807;-65
2022/04/25 08:40:13;;;;;;;2.25;2.05;;;;;;;25.64;34.87;90213.22;5070467;28;20414;-65
2022/04/25 08:42:39;;;;;;;6.95;2.83;;;;;;;25.93;34.50;90216.94;5070643;28;20025;-65
2022/04/25 08:45:06;;;;;;;1.80;1.30;;;;;;;26.66;33.08;90206.84;5070575;28;20627;-62
2022/04/25 08:47:37;;;;;;;0.88;0.88;;;;;;;27.79;32.92;90210.72;5074541;28;20047;-61
2022/04/25 08:50:03;;;;;;;1.00;1.00;;;;;;;27.03;32.21;90208.34;5074390;28;20033;-62
2022/04/25 08:52:29;;;;;;;3.65;1.95;;;;;;;27.54;31.89;90199.66;5074600;28;20459;-62
2022/04/25 08:55:00;;;;;;;4.80;1.10;;;;;;;26.63;33.37;90226.03;5069343;28;20509;-63
2022/04/25 08:57:28;;;;;;;1.38;1.27;;;;;;;27.96;31.75;90212.19;5042277;28;20427;-68
2022/04/25 08:59:58;;;;;;;1.52;1.42;;;;;;;27.87;30.95;90219.47;5042726;28;20021;-63
2022/04/25 09:02:23;;;;;;;3.17;1.17;;;;;;;28.27;30.77;90214.50;5052235;28;20040;-61
2022/04/25 09:04:49;;;;;;;3.53;1.33;;;;;;;27.95;31.85;90207.16;5054055;28;20082;-61
2022/04/25 09:07:16;;;;;;;0.77;0.77;;;;;;;27.92;31.07;90202.53;5053927;28;20029;-62
2022/04/25 09:09:42;;;;;;;1.58;0.85;;;;;;;27.41;32.40;90210.50;5053694;28;20053;-62
2022/04/25 09:12:10;;;;;;;1.73;1.48;;;;;;;25.92;33.33;90209.97;5053928;28;20051;-61
2022/04/25 09:14:41;;;;;;;2.58;1.90;;;;;;;27.55;31.71;90196.50;5054117;28;20121;-62
2022/04/25 09:17:07;;;;;;;2.35;1.55;;;;;;;27.20;33.05;90202.88;5053747;28;20029;-62
2022/04/25 09:19:34;;;;;;;3.65;2.22;;;;;;;28.45;31.22;90213.97;5053438;28;20039;-62
2022/04/25 09:21:59;;;;;;;1.98;1.42;;;;;;;28.12;31.31;90208.63;5054071;28;20526;-61
2022/04/25 09:24:42;;;;;;;1.38;1.00;;;;;;;28.45;29.99;90203.78;5053449;28;20112;-62
2022/04/25 09:27:07;;;;;;;1.08;0.95;;;;;;;28.43;30.55;90213.66;5054091;28;20033;-62
2022/04/25 09:29:37;;;;;;;1.75;1.55;;;;;;;28.10;32.27;90205.56;5053858;28;20543;-62
2022/04/25 09:32:03;;;;;;;2.08;1.73;;;;;;;28.46;31.59;90196.34;5053276;28;20029;-61
2022/04/25 09:37:15;;;;;;;7.10;2.53;;;;;;;28.83;30.21;90195.59;5053809;28;20035;-62
2022/04/25 09:39:41;;;;;;;2.75;1.75;;;;;;;28.50;30.10;90189.56;5049127;28;20037;-62
2022/04/25 09:42:08;;;;;;;3.90;2.40;;;;;;;28.44;31.19;90205.00;5053304;28;20087;-62
2022/04/25 09:45:00;;;;;;;1.02;1.00;;;;;;;29.42;29.79;90194.09;5037204;28;20552;-61
2022/04/25 09:47:29;;;;;;;3.50;1.63;;;;;;;29.15;29.97;90189.13;5041408;28;20041;-62
2022/04/25 09:50:07;;;;;;;0.90;0.90;;;;;;;28.97;30.14;90196.38;5033339;28;20021;-61
2022/04/25 09:52:53;;;;;;;8.77;2.30;;;;;;;29.15;32.25;90188.34;5038799;28;20048;-62
2022/04/25 09:55:20;;;;;;;1.85;1.33;;;;;;;29.04;30.58;90187.94;5049602;28;20053;-63
2022/04/25 09:57:49;;;;;;;3.20;1.92;;;;;;;28.54;30.73;90183.97;5036527;28;20032;-63
2022/04/25 10:00:32;;;;;;;1.33;1.00;;;;;;;29.40;30.76;90202.00;5053434;28;20029;-61
2022/04/25 10:02:58;;;;;;;3.40;2.45;;;;;;;29.84;28.98;90190.38;5053362;28;20509;-62
2022/04/25 10:05:35;;;;;;;4.68;1.52;;;;;;;29.75;29.86;90191.06;5053513;28;20032;-63
2022/04/25 10:08:01;;;;;;;1.52;1.23;;;;;;;29.39;31.30;90191.50;5053316;28;20437;-62
2022/04/25 10:10:27;;;;;;;1.45;1.30;;;;;;;30.23;30.24;90189.75;5053150;28;20045;-62
2022/04/25 10:12:55;;;;;;;1.45;1.35;;;;;;;29.13;30.48;90190.78;5053585;28;20449;-62
2022/04/25 10:15:21;;;;;;;2.45;1.92;;;;;;;28.28;31.56;90183.97;5053085;28;20132;-62
2022/04/25 10:17:47;;;;;;;5.57;1.50;;;;;;;28.58;30.73;90179.19;5053197;28;20028;-62
2022/04/25 10:20:14;;;;;;;0.90;0.85;;;;;;;29.17;30.17;90185.94;5053329;28;20043;-63
2022/04/25 10:22:41;;;;;;;2.10;1.77;;;;;;;30.12;29.43;90192.13;5053337;28;20116;-62
2022/04/25 10:25:06;;;;;;;4.28;1.35;;;;;;;29.70;30.36;90183.41;5053131;28;20032;-63
2022/04/25 10:27:34;;;;;;;1.70;1.60;;;;;;;28.41;31.02;90188.69;5053197;28;20029;-62
2022/04/25 10:30:10;;;;;;;1.02;0.95;;;;;;;29.75;30.21;90191.81;5053122;28;20031;-62
2022/04/25 10:32:36;;;;;;;0.80;0.80;;;;;;;27.08;32.81;90188.72;5053062;28;20449;-62
2022/04/25 10:35:01;;;;;;;2.17;0.80;;;;;;;27.23;31.79;90177.44;5052989;28;20037;-62
2022/04/25 10:37:31;;;;;;;2.65;1.58;;;;;;;25.57;34.49;90195.06;5052872;28;20040;-62
2022/04/25 10:39:58;;;;;;;1.17;1.02;;;;;;;26.86;33.69;90182.22;5053039;28;20036;-62
2022/04/25 10:45:09;;;;;;;18.85;1.90;;;;;;;24.35;36.09;90198.22;5053013;28;20116;-61
2022/04/25 10:47:35;;;;;;;1.48;1.38;;;;;;;27.05;32.73;90192.31;5053131;28;20028;-62
2022/04/25 10:50:05;;;;;;;0.88;0.88;;;;;;;28.88;31.01;90200.56;5052734;28;20025;-62
2022/04/25 10:52:34;;;;;;;2.58;1.00;;;;;;;25.32;34.80;90190.06;5052576;28;20036;-62
2022/04/25 10:55:29;;;;;;;0.98;0.98;;;;;;;25.46;34.45;90193.72;5052828;28;20111;-62
2022/04/25 10:58:04;;;;;;;2.50;2.10;;;;;;;24.00;36.33;90196.75;5052627;28;20029;-61
2022/04/25 11:00:39;;;;;;;3.75;2.00;;;;;;;23.96;36.03;90195.22;5052823;28;20025;-61
2022/04/25 11:03:10;;;;;;;3.67;1.65;;;;;;;25.72;33.77;90181.16;5052553;28;20025;-62
2022/04/25 11:05:37;;;;;;;2.30;1.27;;;;;;;27.11;31.99;90182.38;5052542;28;20025;-62
2022/04/25 11:08:18;;;;;;;0.90;0.90;;;;;;;28.23;32.09;90176.25;5051938;28;20115;-63
2022/04/25 11:11:02;;;;;;;2.60;0.98;;;;;;;27.85;32.02;90186.34;5052221;28;20053;-62
2022/04/25 11:13:33;;;;;;;0.85;0.85;;;;;;;26.40;32.63;90178.59;5052295;28;20074;-63
2022/04/25 11:16:15;;;;;;;1.08;1.08;;;;;;;26.03;33.29;90176.25;5052216;28;20119;-62
2022/04/25 11:18:41;;;;;;;0.80;0.80;;;;;;;27.82;30.63;90177.06;5052228;28;20017;-62
2022/04/25 11:21:13;;;;;;;0.80;0.80;;;;;;;27.38;30.41;90181.34;5034789;28;20071;-62
2022/04/25 11:23:44;;;;;;;1.20;1.08;;;;;;;26.85;31.42;90186.91;5052256;28;20041;-62
2022/04/25 11:26:22;;;;;;;5.57;2.30;;;;;;;25.14;33.43;90181.44;5052300;28;20040;-62
2022/04/25 11:29:04;;;;;;;0.88;0.88;;;;;;;25.19;32.91;90174.75;5034169;28;20044;-62
2022/04/25 11:31:33;;;;;;;1.88;1.38;;;;;;;27.27;31.81;90167.19;5052253;28;20047;-62
2022/04/25 11:34:07;;;;;;;2.03;1.50;;;;;;;28.69;29.17;90184.31;5051933;28;20070;-62
2022/04/25 11:36:41;;;;;;;1.65;1.40;;;;;;;29.54;29.43;90170.66;5051689;28;20467;-62
2022/04/25 11:41:51;;;;;;;1.35;0.98;;;;;;;29.24;28.44;90185.72;5052166;28;20043;-62
2022/04/25 11:44:16;;;;;;;2.05;1.70;;;;;;;29.63;27.77;90175.41;5051763;28;20025;-62
2022/04/25 11:46:43;;;;;;;3.70;1.63;;;;;;;29.72;27.13;90181.75;5051652;28;20482;-62
2022/04/25 11:49:09;;;;;;;1.35;1.25;;;;;;;30.13;26.64;90171.69;5051635;28;20025;-63
2022/04/25 11:51:39;;;;;;;0.65;0.65;;;;;;;30.04;26.51;90180.66;5051513;28;20036;-63
2022/04/25 11:54:09;;;;;;;2.15;0.95;;;;;;;29.46;26.39;90199.50;5051503;28;20632;-63
2022/04/25 11:56:41;;;;;;;1.08;1.08;;;;;;;29.94;26.92;90195.47;5051682;28;20025;-63
2022/04/25 11:59:11;;;;;;;0.80;0.80;;;;;;;29.94;26.75;90195.47;5052966;28;20032;-62
2022/04/25 12:01:47;;;;;;;0.60;0.60;;;;;;;30.44;25.97;90181.94;5056620;28;20047;-62
2022/04/25 12:04:13;;;;;;;0.85;0.82;;;;;;;30.00;26.48;90198.44;5056659;28;20047;-62
2022/04/25 12:06:38;;;;;;;1.33;0.70;;;;;;;30.00;25.43;90182.72;5052966;28;20507;-63